sensor_id;sensor_type;location;lat;lon;timestamp;P1;durP1;ratioP1;P2;durP2;ratioP2
9948;SDS011;5013;51.840;8.276;2023-05-07T00:01:55;5.40;;;4.90;;
9948;SDS011;5013;51.840;8.276;2023-05-07T00:04:21;5.90;;;5.50;;
9948;SDS011;5013;51.840;8.276;2023-05-07T00:06:47;5.80;;;5.23;;
9948;SDS011;5013;51.840;8.276;2023-05-07T00:09:13;6.23;;;5.83;;
9948;SDS011;5013;51.840;8.276;2023-05-07T00:11:39;5.93;;;5.53;;
9948;SDS011;5013;51.840;8.276;2023-05-07T00:14:04;5.80;;;5.37;;
9948;SDS011;5013;51.840;8.276;2023-05-07T00:16:30;7.17;;;6.47;;
9948;SDS011;5013;51.840;8.276;2023-05-07T00:18:55;8.57;;;7.77;;
9948;SDS011;5013;51.840;8.276;2023-05-07T00:21:21;7.27;;;6.67;;
9948;SDS011;5013;51.840;8.276;2023-05-07T00:23:47;7.47;;;6.90;;
9948;SDS011;5013;51.840;8.276;2023-05-07T00:26:12;9.33;;;8.43;;
9948;SDS011;5013;51.840;8.276;2023-05-07T00:28:38;9.03;;;8.10;;
9948;SDS011;5013;51.840;8.276;2023-05-07T00:31:04;8.50;;;7.60;;
9948;SDS011;5013;51.840;8.276;2023-05-07T00:33:29;9.13;;;8.33;;
9948;SDS011;5013;51.840;8.276;2023-05-07T00:35:55;9.63;;;8.73;;
9948;SDS011;5013;51.840;8.276;2023-05-07T00:38:20;9.87;;;8.73;;
9948;SDS011;5013;51.840;8.276;2023-05-07T00:40:46;11.67;;;9.53;;
9948;SDS011;5013;51.840;8.276;2023-05-07T00:43:12;11.80;;;10.70;;
9948;SDS011;5013;51.840;8.276;2023-05-07T00:45:37;10.13;;;8.67;;
9948;SDS011;5013;51.840;8.276;2023-05-07T00:48:03;10.43;;;9.57;;
9948;SDS011;5013;51.840;8.276;2023-05-07T00:50:29;10.77;;;9.77;;
9948;SDS011;5013;51.840;8.276;2023-05-07T00:52:55;12.47;;;11.20;;
9948;SDS011;5013;51.840;8.276;2023-05-07T00:55:21;12.17;;;11.13;;
9948;SDS011;5013;51.840;8.276;2023-05-07T00:57:48;13.30;;;12.10;;
9948;SDS011;5013;51.840;8.276;2023-05-07T01:00:15;11.67;;;10.57;;
9948;SDS011;5013;51.840;8.276;2023-05-07T01:02:41;11.70;;;10.70;;
9948;SDS011;5013;51.840;8.276;2023-05-07T01:05:07;11.13;;;10.10;;
9948;SDS011;5013;51.840;8.276;2023-05-07T01:07:36;12.60;;;11.30;;
9948;SDS011;5013;51.840;8.276;2023-05-07T01:10:04;13.03;;;11.83;;
9948;SDS011;5013;51.840;8.276;2023-05-07T01:12:31;12.37;;;11.20;;
9948;SDS011;5013;51.840;8.276;2023-05-07T01:14:58;13.17;;;11.73;;
9948;SDS011;5013;51.840;8.276;2023-05-07T01:17:23;13.17;;;11.87;;
9948;SDS011;5013;51.840;8.276;2023-05-07T01:19:49;14.73;;;11.57;;
9948;SDS011;5013;51.840;8.276;2023-05-07T01:22:16;11.37;;;10.37;;
9948;SDS011;5013;51.840;8.276;2023-05-07T01:24:46;12.43;;;11.23;;
9948;SDS011;5013;51.840;8.276;2023-05-07T01:27:12;12.47;;;11.30;;
9948;SDS011;5013;51.840;8.276;2023-05-07T01:29:38;13.43;;;12.23;;
9948;SDS011;5013;51.840;8.276;2023-05-07T01:32:03;15.77;;;11.27;;
9948;SDS011;5013;51.840;8.276;2023-05-07T01:34:31;13.93;;;12.43;;
9948;SDS011;5013;51.840;8.276;2023-05-07T01:36:59;12.03;;;11.03;;
9948;SDS011;5013;51.840;8.276;2023-05-07T01:39:25;13.67;;;12.37;;
9948;SDS011;5013;51.840;8.276;2023-05-07T01:41:53;14.57;;;12.77;;
9948;SDS011;5013;51.840;8.276;2023-05-07T01:44:21;14.30;;;13.00;;
9948;SDS011;5013;51.840;8.276;2023-05-07T01:46:47;13.20;;;11.90;;
9948;SDS011;5013;51.840;8.276;2023-05-07T01:49:14;13.00;;;11.77;;
9948;SDS011;5013;51.840;8.276;2023-05-07T01:51:40;13.63;;;12.23;;
9948;SDS011;5013;51.840;8.276;2023-05-07T01:54:06;12.97;;;11.70;;
9948;SDS011;5013;51.840;8.276;2023-05-07T01:56:33;14.20;;;12.20;;
9948;SDS011;5013;51.840;8.276;2023-05-07T01:58:58;14.73;;;13.30;;
9948;SDS011;5013;51.840;8.276;2023-05-07T02:01:24;13.60;;;12.37;;
9948;SDS011;5013;51.840;8.276;2023-05-07T02:03:50;13.87;;;12.50;;
9948;SDS011;5013;51.840;8.276;2023-05-07T02:06:15;14.27;;;12.87;;
9948;SDS011;5013;51.840;8.276;2023-05-07T02:08:41;13.77;;;12.40;;
9948;SDS011;5013;51.840;8.276;2023-05-07T02:11:06;14.60;;;13.10;;
9948;SDS011;5013;51.840;8.276;2023-05-07T02:13:32;14.47;;;13.10;;
9948;SDS011;5013;51.840;8.276;2023-05-07T02:16:02;14.03;;;12.67;;
9948;SDS011;5013;51.840;8.276;2023-05-07T02:18:28;15.77;;;14.20;;
9948;SDS011;5013;51.840;8.276;2023-05-07T02:20:54;14.73;;;13.20;;
9948;SDS011;5013;51.840;8.276;2023-05-07T02:23:19;15.30;;;13.80;;
9948;SDS011;5013;51.840;8.276;2023-05-07T02:25:45;15.03;;;13.67;;
9948;SDS011;5013;51.840;8.276;2023-05-07T02:28:11;15.63;;;13.60;;
9948;SDS011;5013;51.840;8.276;2023-05-07T02:30:37;16.57;;;14.83;;
9948;SDS011;5013;51.840;8.276;2023-05-07T02:33:03;17.43;;;15.50;;
9948;SDS011;5013;51.840;8.276;2023-05-07T02:35:28;17.37;;;15.20;;
9948;SDS011;5013;51.840;8.276;2023-05-07T02:37:54;14.93;;;13.43;;
9948;SDS011;5013;51.840;8.276;2023-05-07T02:40:20;18.97;;;15.27;;
9948;SDS011;5013;51.840;8.276;2023-05-07T02:42:45;17.03;;;15.33;;
9948;SDS011;5013;51.840;8.276;2023-05-07T02:45:11;17.30;;;15.53;;
9948;SDS011;5013;51.840;8.276;2023-05-07T02:47:36;18.30;;;16.50;;
9948;SDS011;5013;51.840;8.276;2023-05-07T02:50:02;18.47;;;16.80;;
9948;SDS011;5013;51.840;8.276;2023-05-07T02:52:28;18.33;;;16.50;;
9948;SDS011;5013;51.840;8.276;2023-05-07T02:54:54;20.13;;;16.57;;
9948;SDS011;5013;51.840;8.276;2023-05-07T02:57:20;18.77;;;16.87;;
9948;SDS011;5013;51.840;8.276;2023-05-07T02:59:45;21.17;;;16.53;;
9948;SDS011;5013;51.840;8.276;2023-05-07T03:02:11;18.83;;;16.83;;
9948;SDS011;5013;51.840;8.276;2023-05-07T03:04:36;20.00;;;18.00;;
9948;SDS011;5013;51.840;8.276;2023-05-07T03:07:02;20.47;;;18.40;;
9948;SDS011;5013;51.840;8.276;2023-05-07T03:09:28;20.47;;;18.50;;
9948;SDS011;5013;51.840;8.276;2023-05-07T03:11:53;20.90;;;18.90;;
9948;SDS011;5013;51.840;8.276;2023-05-07T03:14:19;20.33;;;18.20;;
9948;SDS011;5013;51.840;8.276;2023-05-07T03:16:45;19.47;;;17.43;;
9948;SDS011;5013;51.840;8.276;2023-05-07T03:19:10;20.60;;;17.90;;
9948;SDS011;5013;51.840;8.276;2023-05-07T03:21:36;20.70;;;18.60;;
9948;SDS011;5013;51.840;8.276;2023-05-07T03:24:01;20.23;;;18.23;;
9948;SDS011;5013;51.840;8.276;2023-05-07T03:26:27;21.07;;;18.00;;
9948;SDS011;5013;51.840;8.276;2023-05-07T03:28:53;19.67;;;17.67;;
9948;SDS011;5013;51.840;8.276;2023-05-07T03:31:18;22.20;;;18.70;;
9948;SDS011;5013;51.840;8.276;2023-05-07T03:33:51;23.50;;;19.63;;
9948;SDS011;5013;51.840;8.276;2023-05-07T03:36:17;21.90;;;18.33;;
9948;SDS011;5013;51.840;8.276;2023-05-07T03:38:43;20.33;;;18.27;;
9948;SDS011;5013;51.840;8.276;2023-05-07T03:41:08;21.10;;;18.83;;
9948;SDS011;5013;51.840;8.276;2023-05-07T03:43:34;20.37;;;18.43;;
9948;SDS011;5013;51.840;8.276;2023-05-07T03:46:00;23.50;;;20.17;;
9948;SDS011;5013;51.840;8.276;2023-05-07T03:48:25;22.27;;;20.07;;
9948;SDS011;5013;51.840;8.276;2023-05-07T03:50:51;21.97;;;19.50;;
9948;SDS011;5013;51.840;8.276;2023-05-07T03:53:16;23.17;;;20.73;;
9948;SDS011;5013;51.840;8.276;2023-05-07T03:55:42;21.60;;;19.40;;
9948;SDS011;5013;51.840;8.276;2023-05-07T03:58:07;20.40;;;18.20;;
9948;SDS011;5013;51.840;8.276;2023-05-07T04:00:33;20.83;;;18.67;;
9948;SDS011;5013;51.840;8.276;2023-05-07T04:03:03;22.90;;;19.07;;
9948;SDS011;5013;51.840;8.276;2023-05-07T04:05:29;21.33;;;19.23;;
9948;SDS011;5013;51.840;8.276;2023-05-07T04:07:55;21.40;;;19.23;;
9948;SDS011;5013;51.840;8.276;2023-05-07T04:10:22;20.43;;;18.23;;
9948;SDS011;5013;51.840;8.276;2023-05-07T04:12:48;21.10;;;18.87;;
9948;SDS011;5013;51.840;8.276;2023-05-07T04:15:13;21.17;;;19.07;;
9948;SDS011;5013;51.840;8.276;2023-05-07T04:17:39;21.23;;;19.03;;
9948;SDS011;5013;51.840;8.276;2023-05-07T04:20:06;21.80;;;19.47;;
9948;SDS011;5013;51.840;8.276;2023-05-07T04:22:35;21.43;;;19.30;;
9948;SDS011;5013;51.840;8.276;2023-05-07T04:25:02;22.80;;;19.37;;
9948;SDS011;5013;51.840;8.276;2023-05-07T04:27:28;22.13;;;19.80;;
9948;SDS011;5013;51.840;8.276;2023-05-07T04:29:53;25.00;;;20.83;;
9948;SDS011;5013;51.840;8.276;2023-05-07T04:32:21;22.40;;;20.20;;
9948;SDS011;5013;51.840;8.276;2023-05-07T04:34:47;23.00;;;19.20;;
9948;SDS011;5013;51.840;8.276;2023-05-07T04:37:12;24.60;;;20.40;;
9948;SDS011;5013;51.840;8.276;2023-05-07T04:39:38;23.30;;;20.80;;
9948;SDS011;5013;51.840;8.276;2023-05-07T04:42:03;22.53;;;20.23;;
9948;SDS011;5013;51.840;8.276;2023-05-07T04:44:30;24.33;;;21.37;;
9948;SDS011;5013;51.840;8.276;2023-05-07T04:46:56;22.70;;;20.40;;
9948;SDS011;5013;51.840;8.276;2023-05-07T04:49:22;25.30;;;21.63;;
9948;SDS011;5013;51.840;8.276;2023-05-07T04:51:47;21.50;;;19.20;;
9948;SDS011;5013;51.840;8.276;2023-05-07T04:54:13;25.00;;;21.23;;
9948;SDS011;5013;51.840;8.276;2023-05-07T04:56:38;23.77;;;21.30;;
9948;SDS011;5013;51.840;8.276;2023-05-07T04:59:04;26.07;;;21.80;;
9948;SDS011;5013;51.840;8.276;2023-05-07T05:01:30;24.17;;;20.67;;
9948;SDS011;5013;51.840;8.276;2023-05-07T05:03:56;27.43;;;23.17;;
9948;SDS011;5013;51.840;8.276;2023-05-07T05:06:21;28.07;;;22.10;;
9948;SDS011;5013;51.840;8.276;2023-05-07T05:08:47;24.77;;;22.07;;
9948;SDS011;5013;51.840;8.276;2023-05-07T05:11:12;25.57;;;22.17;;
9948;SDS011;5013;51.840;8.276;2023-05-07T05:13:38;24.93;;;21.70;;
9948;SDS011;5013;51.840;8.276;2023-05-07T05:16:04;24.87;;;22.30;;
9948;SDS011;5013;51.840;8.276;2023-05-07T05:18:30;26.33;;;23.53;;
9948;SDS011;5013;51.840;8.276;2023-05-07T05:20:56;27.40;;;22.87;;
9948;SDS011;5013;51.840;8.276;2023-05-07T05:23:21;26.67;;;22.80;;
9948;SDS011;5013;51.840;8.276;2023-05-07T05:25:47;27.20;;;24.20;;
9948;SDS011;5013;51.840;8.276;2023-05-07T05:28:13;26.33;;;23.53;;
9948;SDS011;5013;51.840;8.276;2023-05-07T05:30:38;28.67;;;23.27;;
9948;SDS011;5013;51.840;8.276;2023-05-07T05:33:04;27.90;;;23.77;;
9948;SDS011;5013;51.840;8.276;2023-05-07T05:35:30;32.93;;;24.63;;
9948;SDS011;5013;51.840;8.276;2023-05-07T05:37:55;27.97;;;24.83;;
9948;SDS011;5013;51.840;8.276;2023-05-07T05:40:21;30.67;;;24.83;;
9948;SDS011;5013;51.840;8.276;2023-05-07T05:42:46;31.93;;;24.93;;
9948;SDS011;5013;51.840;8.276;2023-05-07T05:45:12;31.33;;;25.57;;
9948;SDS011;5013;51.840;8.276;2023-05-07T05:47:38;27.10;;;24.17;;
9948;SDS011;5013;51.840;8.276;2023-05-07T05:50:05;29.43;;;26.00;;
9948;SDS011;5013;51.840;8.276;2023-05-07T05:52:31;28.77;;;25.30;;
9948;SDS011;5013;51.840;8.276;2023-05-07T05:54:56;32.50;;;25.63;;
9948;SDS011;5013;51.840;8.276;2023-05-07T05:57:22;31.30;;;25.90;;
9948;SDS011;5013;51.840;8.276;2023-05-07T05:59:48;29.73;;;25.20;;
9948;SDS011;5013;51.840;8.276;2023-05-07T06:02:13;31.47;;;24.83;;
9948;SDS011;5013;51.840;8.276;2023-05-07T06:04:39;27.90;;;24.47;;
9948;SDS011;5013;51.840;8.276;2023-05-07T06:07:05;28.63;;;24.47;;
9948;SDS011;5013;51.840;8.276;2023-05-07T06:09:30;29.40;;;25.83;;
9948;SDS011;5013;51.840;8.276;2023-05-07T06:11:56;29.57;;;26.23;;
9948;SDS011;5013;51.840;8.276;2023-05-07T06:14:21;27.43;;;23.97;;
9948;SDS011;5013;51.840;8.276;2023-05-07T06:16:47;34.33;;;24.93;;
9948;SDS011;5013;51.840;8.276;2023-05-07T06:19:12;31.17;;;24.97;;
9948;SDS011;5013;51.840;8.276;2023-05-07T06:21:38;33.17;;;24.23;;
9948;SDS011;5013;51.840;8.276;2023-05-07T06:24:05;29.80;;;25.70;;
9948;SDS011;5013;51.840;8.276;2023-05-07T06:26:31;30.90;;;24.40;;
9948;SDS011;5013;51.840;8.276;2023-05-07T06:28:56;31.20;;;23.80;;
9948;SDS011;5013;51.840;8.276;2023-05-07T06:31:22;27.20;;;24.27;;
9948;SDS011;5013;51.840;8.276;2023-05-07T06:33:48;28.20;;;25.20;;
9948;SDS011;5013;51.840;8.276;2023-05-07T06:36:14;29.60;;;24.97;;
9948;SDS011;5013;51.840;8.276;2023-05-07T06:38:39;29.00;;;24.20;;
9948;SDS011;5013;51.840;8.276;2023-05-07T06:41:05;30.50;;;23.53;;
9948;SDS011;5013;51.840;8.276;2023-05-07T06:43:31;26.90;;;24.10;;
9948;SDS011;5013;51.840;8.276;2023-05-07T06:45:57;26.73;;;23.10;;
9948;SDS011;5013;51.840;8.276;2023-05-07T06:48:22;29.03;;;23.17;;
9948;SDS011;5013;51.840;8.276;2023-05-07T06:50:48;28.97;;;23.90;;
9948;SDS011;5013;51.840;8.276;2023-05-07T06:53:13;25.60;;;22.37;;
9948;SDS011;5013;51.840;8.276;2023-05-07T06:55:39;26.07;;;23.37;;
9948;SDS011;5013;51.840;8.276;2023-05-07T06:58:05;27.67;;;23.00;;
9948;SDS011;5013;51.840;8.276;2023-05-07T07:00:31;26.77;;;23.50;;
9948;SDS011;5013;51.840;8.276;2023-05-07T07:02:57;29.00;;;23.43;;
9948;SDS011;5013;51.840;8.276;2023-05-07T07:05:22;27.50;;;22.87;;
9948;SDS011;5013;51.840;8.276;2023-05-07T07:07:48;24.77;;;21.97;;
9948;SDS011;5013;51.840;8.276;2023-05-07T07:10:19;25.77;;;23.07;;
9948;SDS011;5013;51.840;8.276;2023-05-07T07:12:45;30.60;;;24.60;;
9948;SDS011;5013;51.840;8.276;2023-05-07T07:15:11;23.70;;;21.20;;
9948;SDS011;5013;51.840;8.276;2023-05-07T07:17:36;27.63;;;21.47;;
9948;SDS011;5013;51.840;8.276;2023-05-07T07:20:02;27.87;;;22.97;;
9948;SDS011;5013;51.840;8.276;2023-05-07T07:22:28;24.47;;;21.83;;
9948;SDS011;5013;51.840;8.276;2023-05-07T07:24:54;27.13;;;21.03;;
9948;SDS011;5013;51.840;8.276;2023-05-07T07:27:19;24.27;;;21.67;;
9948;SDS011;5013;51.840;8.276;2023-05-07T07:29:45;23.13;;;20.63;;
9948;SDS011;5013;51.840;8.276;2023-05-07T07:32:10;25.87;;;22.47;;
9948;SDS011;5013;51.840;8.276;2023-05-07T07:34:36;24.50;;;21.87;;
9948;SDS011;5013;51.840;8.276;2023-05-07T07:37:01;23.10;;;20.63;;
9948;SDS011;5013;51.840;8.276;2023-05-07T07:39:30;24.80;;;20.63;;
9948;SDS011;5013;51.840;8.276;2023-05-07T07:41:57;23.90;;;20.40;;
9948;SDS011;5013;51.840;8.276;2023-05-07T07:44:22;21.13;;;18.87;;
9948;SDS011;5013;51.840;8.276;2023-05-07T07:46:48;22.73;;;20.43;;
9948;SDS011;5013;51.840;8.276;2023-05-07T07:49:14;22.03;;;19.63;;
9948;SDS011;5013;51.840;8.276;2023-05-07T07:51:39;22.93;;;19.20;;
9948;SDS011;5013;51.840;8.276;2023-05-07T07:54:05;22.20;;;19.80;;
9948;SDS011;5013;51.840;8.276;2023-05-07T07:56:32;20.63;;;18.40;;
9948;SDS011;5013;51.840;8.276;2023-05-07T07:58:58;22.53;;;20.23;;
9948;SDS011;5013;51.840;8.276;2023-05-07T08:01:24;20.80;;;18.67;;
9948;SDS011;5013;51.840;8.276;2023-05-07T08:03:50;22.30;;;17.50;;
9948;SDS011;5013;51.840;8.276;2023-05-07T08:06:16;21.00;;;18.73;;
9948;SDS011;5013;51.840;8.276;2023-05-07T08:08:42;18.10;;;16.40;;
9948;SDS011;5013;51.840;8.276;2023-05-07T08:11:07;18.00;;;16.10;;
9948;SDS011;5013;51.840;8.276;2023-05-07T08:13:33;19.10;;;17.27;;
9948;SDS011;5013;51.840;8.276;2023-05-07T08:15:58;19.30;;;17.40;;
9948;SDS011;5013;51.840;8.276;2023-05-07T08:18:24;19.33;;;17.60;;
9948;SDS011;5013;51.840;8.276;2023-05-07T08:20:50;19.37;;;17.37;;
9948;SDS011;5013;51.840;8.276;2023-05-07T08:23:16;17.73;;;15.93;;
9948;SDS011;5013;51.840;8.276;2023-05-07T08:25:42;19.70;;;16.70;;
9948;SDS011;5013;51.840;8.276;2023-05-07T08:28:07;18.33;;;16.47;;
9948;SDS011;5013;51.840;8.276;2023-05-07T08:30:33;18.50;;;16.60;;
9948;SDS011;5013;51.840;8.276;2023-05-07T08:32:59;17.50;;;15.87;;
9948;SDS011;5013;51.840;8.276;2023-05-07T08:35:25;18.73;;;16.73;;
9948;SDS011;5013;51.840;8.276;2023-05-07T08:37:52;17.57;;;15.73;;
9948;SDS011;5013;51.840;8.276;2023-05-07T08:40:18;16.73;;;15.03;;
9948;SDS011;5013;51.840;8.276;2023-05-07T08:42:44;16.80;;;15.10;;
9948;SDS011;5013;51.840;8.276;2023-05-07T08:45:11;16.70;;;15.13;;
9948;SDS011;5013;51.840;8.276;2023-05-07T08:47:43;17.33;;;15.70;;
9948;SDS011;5013;51.840;8.276;2023-05-07T08:50:12;16.47;;;14.93;;
9948;SDS011;5013;51.840;8.276;2023-05-07T08:52:38;16.53;;;14.93;;
9948;SDS011;5013;51.840;8.276;2023-05-07T08:55:05;15.53;;;14.03;;
9948;SDS011;5013;51.840;8.276;2023-05-07T08:57:32;15.57;;;14.00;;
9948;SDS011;5013;51.840;8.276;2023-05-07T08:59:58;15.27;;;13.77;;
9948;SDS011;5013;51.840;8.276;2023-05-07T09:02:23;16.10;;;14.60;;
9948;SDS011;5013;51.840;8.276;2023-05-07T09:04:49;16.40;;;14.70;;
9948;SDS011;5013;51.840;8.276;2023-05-07T09:07:15;14.37;;;13.07;;
9948;SDS011;5013;51.840;8.276;2023-05-07T09:09:41;14.73;;;13.17;;
9948;SDS011;5013;51.840;8.276;2023-05-07T09:12:09;13.77;;;12.37;;
9948;SDS011;5013;51.840;8.276;2023-05-07T09:14:34;13.30;;;12.10;;
9948;SDS011;5013;51.840;8.276;2023-05-07T09:17:00;14.73;;;13.33;;
9948;SDS011;5013;51.840;8.276;2023-05-07T09:19:26;12.10;;;11.10;;
9948;SDS011;5013;51.840;8.276;2023-05-07T09:22:01;13.43;;;12.23;;
9948;SDS011;5013;51.840;8.276;2023-05-07T09:24:28;13.17;;;12.07;;
9948;SDS011;5013;51.840;8.276;2023-05-07T09:26:58;14.27;;;12.87;;
9948;SDS011;5013;51.840;8.276;2023-05-07T09:29:26;13.37;;;12.07;;
9948;SDS011;5013;51.840;8.276;2023-05-07T09:31:53;12.70;;;11.50;;
9948;SDS011;5013;51.840;8.276;2023-05-07T09:34:19;15.20;;;12.23;;
9948;SDS011;5013;51.840;8.276;2023-05-07T09:36:45;12.37;;;11.23;;
9948;SDS011;5013;51.840;8.276;2023-05-07T09:39:11;12.70;;;11.50;;
9948;SDS011;5013;51.840;8.276;2023-05-07T09:41:44;14.53;;;13.23;;
9948;SDS011;5013;51.840;8.276;2023-05-07T09:44:14;12.70;;;11.63;;
9948;SDS011;5013;51.840;8.276;2023-05-07T09:46:42;13.53;;;12.13;;
9948;SDS011;5013;51.840;8.276;2023-05-07T09:49:12;12.47;;;11.27;;
9948;SDS011;5013;51.840;8.276;2023-05-07T09:51:46;12.57;;;11.50;;
9948;SDS011;5013;51.840;8.276;2023-05-07T09:54:14;13.03;;;11.37;;
9948;SDS011;5013;51.840;8.276;2023-05-07T09:56:40;13.20;;;12.00;;
9948;SDS011;5013;51.840;8.276;2023-05-07T09:59:13;11.57;;;10.67;;
9948;SDS011;5013;51.840;8.276;2023-05-07T10:01:42;16.07;;;12.07;;
9948;SDS011;5013;51.840;8.276;2023-05-07T10:04:09;13.67;;;12.23;;
9948;SDS011;5013;51.840;8.276;2023-05-07T10:06:35;14.93;;;10.30;;
9948;SDS011;5013;51.840;8.276;2023-05-07T10:09:02;12.53;;;11.43;;
9948;SDS011;5013;51.840;8.276;2023-05-07T10:11:31;12.07;;;11.07;;
9948;SDS011;5013;51.840;8.276;2023-05-07T10:13:58;11.30;;;10.30;;
9948;SDS011;5013;51.840;8.276;2023-05-07T10:16:27;13.17;;;11.83;;
9948;SDS011;5013;51.840;8.276;2023-05-07T10:19:03;12.70;;;11.03;;
9948;SDS011;5013;51.840;8.276;2023-05-07T10:21:30;10.90;;;9.87;;
9948;SDS011;5013;51.840;8.276;2023-05-07T10:23:59;12.80;;;11.60;;
9948;SDS011;5013;51.840;8.276;2023-05-07T10:26:39;12.73;;;11.63;;
9948;SDS011;5013;51.840;8.276;2023-05-07T10:29:10;11.93;;;10.93;;
9948;SDS011;5013;51.840;8.276;2023-05-07T10:34:13;10.53;;;9.50;;
9948;SDS011;5013;51.840;8.276;2023-05-07T10:36:44;11.43;;;10.53;;
9948;SDS011;5013;51.840;8.276;2023-05-07T10:39:10;12.70;;;11.33;;
9948;SDS011;5013;51.840;8.276;2023-05-07T10:41:36;12.53;;;11.43;;
9948;SDS011;5013;51.840;8.276;2023-05-07T10:44:02;10.83;;;9.90;;
9948;SDS011;5013;51.840;8.276;2023-05-07T10:46:27;10.57;;;9.60;;
9948;SDS011;5013;51.840;8.276;2023-05-07T10:51:26;13.00;;;11.83;;
9948;SDS011;5013;51.840;8.276;2023-05-07T10:56:36;10.10;;;9.35;;
9948;SDS011;5013;51.840;8.276;2023-05-07T11:02:07;11.82;;;10.82;;
9948;SDS011;5013;51.840;8.276;2023-05-07T11:04:34;11.57;;;10.65;;
9948;SDS011;5013;51.840;8.276;2023-05-07T11:12:16;11.70;;;10.60;;
9948;SDS011;5013;51.840;8.276;2023-05-07T11:17:07;10.97;;;10.07;;
9948;SDS011;5013;51.840;8.276;2023-05-07T11:19:50;11.00;;;10.10;;
9948;SDS011;5013;51.840;8.276;2023-05-07T11:25:04;11.57;;;10.67;;
9948;SDS011;5013;51.840;8.276;2023-05-07T11:27:31;11.00;;;10.00;;
9948;SDS011;5013;51.840;8.276;2023-05-07T11:29:57;10.38;;;9.45;;
9948;SDS011;5013;51.840;8.276;2023-05-07T11:32:30;11.07;;;10.07;;
9948;SDS011;5013;51.840;8.276;2023-05-07T11:34:57;11.73;;;10.73;;
9948;SDS011;5013;51.840;8.276;2023-05-07T11:37:25;10.20;;;9.32;;
9948;SDS011;5013;51.840;8.276;2023-05-07T11:40:17;10.68;;;9.70;;
9948;SDS011;5013;51.840;8.276;2023-05-07T11:42:43;10.90;;;10.00;;
9948;SDS011;5013;51.840;8.276;2023-05-07T11:45:08;9.63;;;8.63;;
9948;SDS011;5013;51.840;8.276;2023-05-07T11:47:34;9.40;;;8.55;;
9948;SDS011;5013;51.840;8.276;2023-05-07T11:50:06;10.35;;;9.48;;
9948;SDS011;5013;51.840;8.276;2023-05-07T11:52:33;10.05;;;9.23;;
9948;SDS011;5013;51.840;8.276;2023-05-07T11:54:59;10.15;;;9.35;;
9948;SDS011;5013;51.840;8.276;2023-05-07T11:57:26;10.18;;;9.23;;
9948;SDS011;5013;51.840;8.276;2023-05-07T11:59:55;9.48;;;8.68;;
9948;SDS011;5013;51.840;8.276;2023-05-07T12:02:22;10.85;;;10.05;;
9948;SDS011;5013;51.840;8.276;2023-05-07T12:04:49;11.02;;;10.02;;
9948;SDS011;5013;51.840;8.276;2023-05-07T12:07:15;9.75;;;9.00;;
9948;SDS011;5013;51.840;8.276;2023-05-07T12:09:41;10.93;;;9.90;;
9948;SDS011;5013;51.840;8.276;2023-05-07T12:12:11;11.48;;;10.35;;
9948;SDS011;5013;51.840;8.276;2023-05-07T12:14:40;9.68;;;8.65;;
9948;SDS011;5013;51.840;8.276;2023-05-07T12:17:10;10.73;;;9.82;;
9948;SDS011;5013;51.840;8.276;2023-05-07T12:19:38;10.27;;;9.25;;
9948;SDS011;5013;51.840;8.276;2023-05-07T12:22:05;10.82;;;9.68;;
9948;SDS011;5013;51.840;8.276;2023-05-07T12:24:49;10.32;;;9.52;;
9948;SDS011;5013;51.840;8.276;2023-05-07T12:27:21;9.25;;;8.52;;
9948;SDS011;5013;51.840;8.276;2023-05-07T12:29:48;11.30;;;10.40;;
9948;SDS011;5013;51.840;8.276;2023-05-07T12:32:15;10.77;;;9.65;;
9948;SDS011;5013;51.840;8.276;2023-05-07T12:34:42;10.23;;;9.43;;
9948;SDS011;5013;51.840;8.276;2023-05-07T12:37:08;9.90;;;9.15;;
9948;SDS011;5013;51.840;8.276;2023-05-07T12:39:34;10.60;;;9.07;;
9948;SDS011;5013;51.840;8.276;2023-05-07T12:41:59;10.82;;;8.00;;
9948;SDS011;5013;51.840;8.276;2023-05-07T12:44:26;9.10;;;8.30;;
9948;SDS011;5013;51.840;8.276;2023-05-07T12:46:56;9.32;;;8.43;;
9948;SDS011;5013;51.840;8.276;2023-05-07T12:49:22;8.02;;;7.53;;
9948;SDS011;5013;51.840;8.276;2023-05-07T12:51:48;9.45;;;8.50;;
9948;SDS011;5013;51.840;8.276;2023-05-07T12:54:27;8.00;;;7.40;;
9948;SDS011;5013;51.840;8.276;2023-05-07T12:57:27;8.85;;;8.05;;
9948;SDS011;5013;51.840;8.276;2023-05-07T12:59:46;9.10;;;8.40;;
9948;SDS011;5013;51.840;8.276;2023-05-07T13:02:12;9.02;;;8.20;;
9948;SDS011;5013;51.840;8.276;2023-05-07T13:04:37;7.57;;;6.97;;
9948;SDS011;5013;51.840;8.276;2023-05-07T13:07:03;8.65;;;7.30;;
9948;SDS011;5013;51.840;8.276;2023-05-07T13:09:30;8.02;;;7.32;;
9948;SDS011;5013;51.840;8.276;2023-05-07T13:11:56;8.20;;;7.47;;
9948;SDS011;5013;51.840;8.276;2023-05-07T13:14:25;8.25;;;7.65;;
9948;SDS011;5013;51.840;8.276;2023-05-07T13:16:50;7.22;;;6.63;;
9948;SDS011;5013;51.840;8.276;2023-05-07T13:19:16;6.70;;;6.22;;
9948;SDS011;5013;51.840;8.276;2023-05-07T13:21:42;7.30;;;6.70;;
9948;SDS011;5013;51.840;8.276;2023-05-07T13:24:08;6.47;;;6.05;;
9948;SDS011;5013;51.840;8.276;2023-05-07T13:26:33;7.68;;;7.18;;
9948;SDS011;5013;51.840;8.276;2023-05-07T13:28:59;7.20;;;6.70;;
9948;SDS011;5013;51.840;8.276;2023-05-07T13:31:24;6.97;;;6.38;;
9948;SDS011;5013;51.840;8.276;2023-05-07T13:33:50;6.65;;;6.22;;
9948;SDS011;5013;51.840;8.276;2023-05-07T13:36:15;6.43;;;5.97;;
9948;SDS011;5013;51.840;8.276;2023-05-07T13:38:41;6.90;;;6.28;;
9948;SDS011;5013;51.840;8.276;2023-05-07T13:41:07;6.63;;;6.13;;
9948;SDS011;5013;51.840;8.276;2023-05-07T13:43:33;6.65;;;6.07;;
9948;SDS011;5013;51.840;8.276;2023-05-07T13:45:59;5.85;;;5.32;;
9948;SDS011;5013;51.840;8.276;2023-05-07T13:48:25;5.80;;;5.50;;
9948;SDS011;5013;51.840;8.276;2023-05-07T13:50:50;6.57;;;6.18;;
9948;SDS011;5013;51.840;8.276;2023-05-07T13:53:16;6.00;;;5.60;;
9948;SDS011;5013;51.840;8.276;2023-05-07T13:55:43;6.10;;;5.68;;
9948;SDS011;5013;51.840;8.276;2023-05-07T13:58:09;6.43;;;6.00;;
9948;SDS011;5013;51.840;8.276;2023-05-07T14:00:34;5.97;;;5.47;;
9948;SDS011;5013;51.840;8.276;2023-05-07T14:03:00;4.97;;;4.57;;
9948;SDS011;5013;51.840;8.276;2023-05-07T14:05:26;5.97;;;5.40;;
9948;SDS011;5013;51.840;8.276;2023-05-07T14:07:54;5.85;;;5.40;;
9948;SDS011;5013;51.840;8.276;2023-05-07T14:10:21;5.47;;;5.00;;
9948;SDS011;5013;51.840;8.276;2023-05-07T14:12:47;5.55;;;5.15;;
9948;SDS011;5013;51.840;8.276;2023-05-07T14:15:13;6.30;;;5.80;;
9948;SDS011;5013;51.840;8.276;2023-05-07T14:17:38;6.32;;;5.82;;
9948;SDS011;5013;51.840;8.276;2023-05-07T14:20:04;5.82;;;5.43;;
9948;SDS011;5013;51.840;8.276;2023-05-07T14:22:33;5.93;;;5.57;;
9948;SDS011;5013;51.840;8.276;2023-05-07T14:24:58;6.00;;;5.60;;
9948;SDS011;5013;51.840;8.276;2023-05-07T14:27:24;6.40;;;6.00;;
9948;SDS011;5013;51.840;8.276;2023-05-07T14:29:50;7.20;;;6.50;;
9948;SDS011;5013;51.840;8.276;2023-05-07T14:32:19;5.88;;;5.38;;
9948;SDS011;5013;51.840;8.276;2023-05-07T14:34:45;5.88;;;5.47;;
9948;SDS011;5013;51.840;8.276;2023-05-07T14:37:11;5.72;;;5.22;;
9948;SDS011;5013;51.840;8.276;2023-05-07T14:39:37;9.30;;;6.10;;
9948;SDS011;5013;51.840;8.276;2023-05-07T14:42:02;5.95;;;5.55;;
9948;SDS011;5013;51.840;8.276;2023-05-07T14:44:28;5.35;;;5.05;;
9948;SDS011;5013;51.840;8.276;2023-05-07T14:46:54;6.55;;;6.00;;
9948;SDS011;5013;51.840;8.276;2023-05-07T14:49:20;5.03;;;4.72;;
9948;SDS011;5013;51.840;8.276;2023-05-07T14:51:45;6.60;;;5.97;;
9948;SDS011;5013;51.840;8.276;2023-05-07T14:54:12;5.97;;;5.57;;
9948;SDS011;5013;51.840;8.276;2023-05-07T14:56:38;7.05;;;6.45;;
9948;SDS011;5013;51.840;8.276;2023-05-07T14:59:04;7.38;;;6.78;;
9948;SDS011;5013;51.840;8.276;2023-05-07T15:01:30;8.47;;;7.03;;
9948;SDS011;5013;51.840;8.276;2023-05-07T15:03:55;7.57;;;7.05;;
9948;SDS011;5013;51.840;8.276;2023-05-07T15:06:21;6.87;;;6.37;;
9948;SDS011;5013;51.840;8.276;2023-05-07T15:08:48;8.00;;;7.20;;
9948;SDS011;5013;51.840;8.276;2023-05-07T15:11:13;8.33;;;7.73;;
9948;SDS011;5013;51.840;8.276;2023-05-07T15:13:42;8.30;;;7.50;;